F/V P'tite Fleur Ble — FHZT — position and weather

sailwx.info

Track history (hours):
 
Tides and Currents Weather Stations Pressure Air Temp Water Temp Dewpoint Dewpoint Depression Visibility Wind Speed Wind Dir Waves Ship Positions

F/V P'tite Fleur Ble

Last reported at 2017-Sep-04 10:57 UTC. Time now 2017-Sep-25 08:02 UTC.
Position N 48°57' W 004°27'.
Warning: this ship's position is 20 days out of date.

Length 13 m.

Type: Fishing. MMSI: 228287000.

Date/timePositionNaut miles runAvg speedWind from/ knotsBaromVisibWave heightAir tempDewpointWater temp
2017-Sep-04 10:57N 48°57' W 004°27'2 1.3
2017-Sep-04 09:30N 48°59' W 004°26'2 1.4
2017-Sep-04 08:17N 49°01' W 004°25'2 3.6
2017-Sep-04 07:52N 48°60' W 004°27'2 0.6
2017-Sep-04 05:20N 49°01' W 004°25'1 2.9
2017-Sep-04 05:00N 49°01' W 004°23'  
2017-Aug-28 07:43N 48°44' W 004°19'3 8.3
2017-Aug-28 07:23N 48°46' W 004°21'5 7.8
2017-Aug-28 06:43N 48°50' W 004°26'10 2.4
2017-Aug-28 02:41N 48°60' W 004°28'1 4.6
2017-Aug-28 02:22N 48°58' W 004°27'10 4.7
2017-Aug-28 00:20N 48°50' W 004°20'2 4.9
2017-Aug-28 00:00N 48°48' W 004°19'6 4.8
2017-Aug-27 22:49N 48°43' W 004°16'2 5.3
2017-Aug-27 22:30N 48°41' W 004°16'2 0.1
2017-Aug-27 08:12N 48°43' W 004°17'9 8.0
2017-Aug-27 07:02N 48°52' W 004°24'1 7.9
2017-Aug-27 06:55N 48°52' W 004°24'3 7.6
2017-Aug-27 06:30N 48°55' W 004°26'3 6.6
2017-Aug-27 06:00N 48°58' W 004°29'3 6.5
2017-Aug-27 05:30N 48°56' W 004°33'8 1.3
2017-Aug-26 23:51N 48°55' W 004°22'2 4.5
2017-Aug-26 23:25N 48°53' W 004°21'2 4.6
2017-Aug-26 22:57N 48°51' W 004°20'3 4.9
2017-Aug-26 22:18N 48°48' W 004°18'3 4.8
2017-Aug-26 21:46N 48°45' W 004°17'1 4.8
2017-Aug-26 21:30N 48°44' W 004°17'3 5.1
2017-Aug-26 20:53N 48°41' W 004°15'  
Track history (hours):
 
Tides and Currents Weather Stations Pressure Air Temp Water Temp Dewpoint Dewpoint Depression Visibility Wind Speed Wind Dir Waves Ship Positions

F/V P'tite Fleur Ble

Last reported at 2017-Sep-04 10:57 UTC. Time now 2017-Sep-25 08:02 UTC.
Position N 48°57' W 004°27'.
Warning: this ship's position is 20 days out of date.

Length 13 m.

Type: Fishing. MMSI: 228287000.

Date/timePositionNaut miles runAvg speedWind from/ knotsBaromVisibWave heightAir tempDewpointWater temp
2017-Sep-04 10:57N 48°57' W 004°27'2 1.3
2017-Sep-04 09:30N 48°59' W 004°26'2 1.4
2017-Sep-04 08:17N 49°01' W 004°25'2 3.6
2017-Sep-04 07:52N 48°60' W 004°27'2 0.6
2017-Sep-04 05:20N 49°01' W 004°25'1 2.9
2017-Sep-04 05:00N 49°01' W 004°23'  
2017-Aug-28 07:43N 48°44' W 004°19'3 8.3
2017-Aug-28 07:23N 48°46' W 004°21'5 7.8
2017-Aug-28 06:43N 48°50' W 004°26'10 2.4
2017-Aug-28 02:41N 48°60' W 004°28'1 4.6
2017-Aug-28 02:22N 48°58' W 004°27'10 4.7
2017-Aug-28 00:20N 48°50' W 004°20'2 4.9
2017-Aug-28 00:00N 48°48' W 004°19'6 4.8
2017-Aug-27 22:49N 48°43' W 004°16'2 5.3
2017-Aug-27 22:30N 48°41' W 004°16'2 0.1
2017-Aug-27 08:12N 48°43' W 004°17'9 8.0
2017-Aug-27 07:02N 48°52' W 004°24'1 7.9
2017-Aug-27 06:55N 48°52' W 004°24'3 7.6
2017-Aug-27 06:30N 48°55' W 004°26'3 6.6
2017-Aug-27 06:00N 48°58' W 004°29'3 6.5
2017-Aug-27 05:30N 48°56' W 004°33'8 1.3
2017-Aug-26 23:51N 48°55' W 004°22'2 4.5
2017-Aug-26 23:25N 48°53' W 004°21'2 4.6
2017-Aug-26 22:57N 48°51' W 004°20'3 4.9
2017-Aug-26 22:18N 48°48' W 004°18'3 4.8
2017-Aug-26 21:46N 48°45' W 004°17'1 4.8
2017-Aug-26 21:30N 48°44' W 004°17'3 5.1
2017-Aug-26 20:53N 48°41' W 004°15'  

Dump ship's entire track history